Time,TemperatureF,DewpointF,PressureIn,WindDirection,WindDirectionDegrees,WindSpeedMPH,WindSpeedGustMPH,Humidity,HourlyPrecipIn,Conditions,Clouds,dailyrainin,SolarRadiationWatts/m^2,SoftwareType,DateUTC
2013-07-23 00:06:00,72.5,38.3,29.57,North,-999,-999.0,-999.0,5,0.00,,,-99.99,0.0,Linux-Irox,2013-07-23 07:06:00,
2013-07-23 00:16:00,71.8,37.6,29.57,North,-999,-999.0,-999.0,5,0.00,,,-99.99,0.0,Linux-Irox,2013-07-23 07:16:00,
2013-07-23 00:26:00,71.8,37.6,29.58,North,-999,-999.0,-999.0,5,0.00,,,-99.99,0.0,Linux-Irox,2013-07-23 07:26:00,
2013-07-23 00:36:00,72.3,38.1,29.58,North,-999,-999.0,-999.0,5,0.00,,,-99.99,0.0,Linux-Irox,2013-07-23 07:36:00,
2013-07-23 00:46:00,72.7,38.5,29.54,North,-999,-999.0,-999.0,5,0.00,,,-99.99,0.0,Linux-Irox,2013-07-23 07:46:00,
2013-07-23 00:56:00,72.5,38.3,29.54,North,-999,-999.0,-999.0,5,0.00,,,-99.99,0.0,Linux-Irox,2013-07-23 07:56:00,
2013-07-23 01:06:00,72.5,38.3,29.53,North,-999,-999.0,-999.0,5,0.00,,,-99.99,0.0,Linux-Irox,2013-07-23 08:06:00,
2013-07-23 01:16:00,73.2,39.0,29.53,North,-999,-999.0,-999.0,5,0.00,,,-99.99,0.0,Linux-Irox,2013-07-23 08:16:00,
2013-07-23 01:26:00,72.5,38.3,29.50,North,-999,-999.0,-999.0,5,0.00,,,-99.99,0.0,Linux-Irox,2013-07-23 08:26:00,
2013-07-23 01:36:00,72.7,38.5,29.50,North,-999,-999.0,-999.0,5,0.00,,,-99.99,0.0,Linux-Irox,2013-07-23 08:36:00,
2013-07-23 01:46:00,73.6,39.4,29.50,North,-999,-999.0,-999.0,5,0.00,,,-99.99,0.0,Linux-Irox,2013-07-23 08:46:00,
2013-07-23 01:56:00,73.4,39.2,29.50,North,-999,-999.0,-999.0,5,0.00,,,-99.99,0.0,Linux-Irox,2013-07-23 08:56:00,
2013-07-23 02:06:00,72.9,38.7,29.48,North,-999,-999.0,-999.0,5,0.00,,,-99.99,0.0,Linux-Irox,2013-07-23 09:06:00,
2013-07-23 02:16:00,73.0,38.8,29.48,North,-999,-999.0,-999.0,5,0.00,,,-99.99,0.0,Linux-Irox,2013-07-23 09:16:00,
2013-07-23 02:26:00,72.9,38.7,29.52,North,-999,-999.0,-999.0,5,0.00,,,-99.99,0.0,Linux-Irox,2013-07-23 09:26:00,
2013-07-23 02:36:00,73.0,38.8,29.52,North,-999,-999.0,-999.0,5,0.00,,,-99.99,0.0,Linux-Irox,2013-07-23 09:36:00,
2013-07-23 02:46:00,72.5,38.3,29.52,North,-999,-999.0,-999.0,5,0.00,,,-99.99,0.0,Linux-Irox,2013-07-23 09:46:00,
2013-07-23 02:56:00,72.3,38.1,29.52,North,-999,-999.0,-999.0,5,0.00,,,-99.99,0.0,Linux-Irox,2013-07-23 09:56:00,
2013-07-23 03:06:00,72.1,37.9,29.52,North,-999,-999.0,-999.0,5,0.00,,,-99.99,0.0,Linux-Irox,2013-07-23 10:06:00,
2013-07-23 03:16:00,71.8,37.6,29.52,North,-999,-999.0,-999.0,5,0.00,,,-99.99,0.0,Linux-Irox,2013-07-23 10:16:00,
2013-07-23 03:26:00,71.4,37.2,29.53,North,-999,-999.0,-999.0,5,0.00,,,-99.99,0.0,Linux-Irox,2013-07-23 10:26:00,
2013-07-23 03:36:00,71.1,36.9,29.53,North,-999,-999.0,-999.0,5,0.00,,,-99.99,0.0,Linux-Irox,2013-07-23 10:36:00,
2013-07-23 03:46:00,70.9,36.7,29.54,North,-999,-999.0,-999.0,5,0.00,,,-99.99,0.0,Linux-Irox,2013-07-23 10:46:00,
2013-07-23 03:56:00,70.5,36.3,29.54,North,-999,-999.0,-999.0,5,0.00,,,-99.99,0.0,Linux-Irox,2013-07-23 10:56:00,
2013-07-23 04:06:00,70.2,36.0,29.54,North,-999,-999.0,-999.0,5,0.00,,,-99.99,0.0,Linux-Irox,2013-07-23 11:06:00,
2013-07-23 04:16:00,70.0,35.8,29.54,North,-999,-999.0,-999.0,5,0.00,,,-99.99,0.0,Linux-Irox,2013-07-23 11:16:00,
2013-07-23 04:26:00,70.0,35.8,29.54,North,-999,-999.0,-999.0,5,0.00,,,-99.99,0.0,Linux-Irox,2013-07-23 11:26:00,
2013-07-23 04:36:00,69.8,35.6,29.54,North,-999,-999.0,-999.0,5,0.00,,,-99.99,0.0,Linux-Irox,2013-07-23 11:36:00,
2013-07-23 04:46:00,69.6,35.4,29.56,North,-999,-999.0,-999.0,5,0.00,,,-99.99,0.0,Linux-Irox,2013-07-23 11:46:00,
2013-07-23 04:56:00,69.4,35.2,29.56,North,-999,-999.0,-999.0,5,0.00,,,-99.99,0.0,Linux-Irox,2013-07-23 11:56:00,
2013-07-23 05:06:00,69.6,35.4,29.58,North,-999,-999.0,-999.0,5,0.00,,,-99.99,0.0,Linux-Irox,2013-07-23 12:06:00,
2013-07-23 05:16:00,69.3,35.1,29.58,North,-999,-999.0,-999.0,5,0.00,,,-99.99,0.0,Linux-Irox,2013-07-23 12:16:00,
2013-07-23 05:26:00,68.7,34.5,29.57,North,-999,-999.0,-999.0,5,0.00,,,-99.99,0.0,Linux-Irox,2013-07-23 12:26:00,
2013-07-23 05:36:00,68.4,34.2,29.57,North,-999,-999.0,-999.0,5,0.00,,,-99.99,0.0,Linux-Irox,2013-07-23 12:36:00,
2013-07-23 05:46:00,68.0,33.8,29.57,North,-999,-999.0,-999.0,5,0.00,,,-99.99,0.0,Linux-Irox,2013-07-23 12:46:00,
2013-07-23 05:56:00,67.5,33.3,29.57,North,-999,-999.0,-999.0,5,0.00,,,-99.99,0.0,Linux-Irox,2013-07-23 12:56:00,
2013-07-23 06:06:00,67.5,33.3,29.58,North,-999,-999.0,-999.0,5,0.00,,,-99.99,0.0,Linux-Irox,2013-07-23 13:06:00,
2013-07-23 06:16:00,67.1,32.9,29.58,North,-999,-999.0,-999.0,5,0.00,,,-99.99,0.0,Linux-Irox,2013-07-23 13:16:00,
2013-07-23 06:26:00,66.6,32.4,29.58,North,-999,-999.0,-999.0,5,0.00,,,-99.99,0.0,Linux-Irox,2013-07-23 13:26:00,
2013-07-23 06:31:00,66.6,32.4,29.58,North,-999,-999.0,-999.0,5,0.00,,,-99.99,0.0,Linux-Irox,2013-07-23 13:31:00,
2013-07-23 06:36:00,66.2,32.0,29.58,North,-999,-999.0,-999.0,5,0.00,,,-99.99,0.0,Linux-Irox,2013-07-23 13:36:00,
2013-07-23 06:46:00,66.2,32.0,29.58,North,-999,-999.0,-999.0,5,0.00,,,-99.99,0.0,Linux-Irox,2013-07-23 13:46:00,
2013-07-23 06:56:00,66.4,32.2,29.58,North,-999,-999.0,-999.0,5,0.00,,,-99.99,0.0,Linux-Irox,2013-07-23 13:56:00,
2013-07-23 07:01:00,66.6,32.4,29.58,North,-999,-999.0,-999.0,5,0.00,,,-99.99,0.0,Linux-Irox,2013-07-23 14:01:00,
2013-07-23 07:06:00,67.1,32.9,29.58,North,-999,-999.0,-999.0,5,0.00,,,-99.99,0.0,Linux-Irox,2013-07-23 14:06:00,
2013-07-23 07:16:00,71.8,37.6,29.58,North,-999,-999.0,-999.0,5,0.00,,,-99.99,0.0,Linux-Irox,2013-07-23 14:16:00,
2013-07-23 07:26:00,73.9,39.7,29.58,North,-999,-999.0,-999.0,5,0.00,,,-99.99,0.0,Linux-Irox,2013-07-23 14:26:00,
2013-07-23 07:31:00,75.6,41.4,29.58,North,-999,-999.0,-999.0,5,0.00,,,-99.99,0.0,Linux-Irox,2013-07-23 14:31:00,
2013-07-23 07:36:00,75.4,41.2,29.58,North,-999,-999.0,-999.0,5,0.03,,,-99.99,0.0,Linux-Irox,2013-07-23 14:36:00,
2013-07-23 07:46:00,74.3,40.1,29.58,North,-999,-999.0,-999.0,5,0.03,,,-99.99,0.0,Linux-Irox,2013-07-23 14:46:00,
2013-07-23 07:56:00,78.4,44.2,29.58,North,-999,-999.0,-999.0,5,0.03,,,-99.99,0.0,Linux-Irox,2013-07-23 14:56:00,
2013-07-23 08:01:00,78.4,44.2,29.57,North,-999,-999.0,-999.0,5,0.03,,,-99.99,0.0,Linux-Irox,2013-07-23 15:01:00,
2013-07-23 08:06:00,79.7,45.5,29.57,North,-999,-999.0,-999.0,5,0.03,,,-99.99,0.0,Linux-Irox,2013-07-23 15:06:00,
2013-07-23 08:16:00,80.1,45.9,29.57,North,-999,-999.0,-999.0,5,0.03,,,-99.99,0.0,Linux-Irox,2013-07-23 15:16:00,
2013-07-23 08:26:00,82.2,48.0,29.56,North,-999,-999.0,-999.0,5,0.03,,,-99.99,0.0,Linux-Irox,2013-07-23 15:26:00,
2013-07-23 08:31:00,82.9,48.7,29.56,North,-999,-999.0,-999.0,5,0.03,,,-99.99,0.0,Linux-Irox,2013-07-23 15:31:00,
2013-07-23 08:36:00,83.7,49.5,29.56,North,-999,-999.0,-999.0,5,0.03,,,-99.99,0.0,Linux-Irox,2013-07-23 15:36:00,
2013-07-23 08:46:00,86.2,52.0,29.56,North,-999,-999.0,-999.0,5,0.00,,,-99.99,0.0,Linux-Irox,2013-07-23 15:46:00,
2013-07-23 08:56:00,87.1,52.9,29.56,North,-999,-999.0,-999.0,5,0.00,,,-99.99,0.0,Linux-Irox,2013-07-23 15:56:00,
2013-07-23 09:01:00,89.4,55.2,29.55,North,-999,-999.0,-999.0,5,0.00,,,-99.99,0.0,Linux-Irox,2013-07-23 16:01:00,
2013-07-23 09:06:00,90.7,56.5,29.55,North,-999,-999.0,-999.0,5,0.00,,,-99.99,0.0,Linux-Irox,2013-07-23 16:06:00,
2013-07-23 09:16:00,91.2,57.0,29.55,North,-999,-999.0,-999.0,5,0.00,,,-99.99,0.0,Linux-Irox,2013-07-23 16:16:00,
2013-07-23 09:26:00,91.2,57.0,29.56,North,-999,-999.0,-999.0,5,0.00,,,-99.99,0.0,Linux-Irox,2013-07-23 16:26:00,
2013-07-23 09:31:00,91.0,56.8,29.56,North,-999,-999.0,-999.0,5,0.00,,,-99.99,0.0,Linux-Irox,2013-07-23 16:31:00,
2013-07-23 09:36:00,88.3,54.1,29.56,North,-999,-999.0,-999.0,5,0.00,,,-99.99,0.0,Linux-Irox,2013-07-23 16:36:00,
2013-07-23 09:46:00,87.1,52.9,29.56,North,-999,-999.0,-999.0,5,0.00,,,-99.99,0.0,Linux-Irox,2013-07-23 16:46:00,
2013-07-23 09:56:00,89.6,55.4,29.56,North,-999,-999.0,-999.0,5,0.00,,,-99.99,0.0,Linux-Irox,2013-07-23 16:56:00,
2013-07-23 10:01:00,87.8,53.6,29.56,North,-999,-999.0,-999.0,5,0.00,,,-99.99,0.0,Linux-Irox,2013-07-23 17:01:00,
2013-07-23 10:06:00,86.2,52.0,29.56,North,-999,-999.0,-999.0,5,0.00,,,-99.99,0.0,Linux-Irox,2013-07-23 17:06:00,
2013-07-23 10:16:00,85.3,51.1,29.56,North,-999,-999.0,-999.0,5,0.00,,,-99.99,0.0,Linux-Irox,2013-07-23 17:16:00,
2013-07-23 10:26:00,85.6,51.4,29.56,North,-999,-999.0,-999.0,5,0.00,,,-99.99,0.0,Linux-Irox,2013-07-23 17:26:00,
2013-07-23 10:31:00,86.2,52.0,29.56,North,-999,-999.0,-999.0,5,0.00,,,-99.99,0.0,Linux-Irox,2013-07-23 17:31:00,
2013-07-23 10:36:00,86.5,52.3,29.56,North,-999,-999.0,-999.0,5,0.00,,,-99.99,0.0,Linux-Irox,2013-07-23 17:36:00,
2013-07-23 10:46:00,87.3,53.1,29.57,North,-999,-999.0,-999.0,5,0.00,,,-99.99,0.0,Linux-Irox,2013-07-23 17:46:00,
2013-07-23 10:56:00,87.4,53.2,29.57,North,-999,-999.0,-999.0,5,0.00,,,-99.99,0.0,Linux-Irox,2013-07-23 17:56:00,
2013-07-23 11:06:00,89.4,55.2,29.57,North,-999,-999.0,-999.0,5,0.00,,,-99.99,0.0,Linux-Irox,2013-07-23 18:06:00,
2013-07-23 11:16:00,90.0,55.8,29.57,North,-999,-999.0,-999.0,5,0.00,,,-99.99,0.0,Linux-Irox,2013-07-23 18:16:00,
2013-07-23 11:26:00,90.1,55.9,29.56,North,-999,-999.0,-999.0,5,0.00,,,-99.99,0.0,Linux-Irox,2013-07-23 18:26:00,
2013-07-23 11:31:00,91.0,56.8,29.56,North,-999,-999.0,-999.0,5,0.00,,,-99.99,0.0,Linux-Irox,2013-07-23 18:31:00,
2013-07-23 11:36:00,91.8,57.6,29.56,North,-999,-999.0,-999.0,5,0.00,,,-99.99,0.0,Linux-Irox,2013-07-23 18:36:00,
2013-07-23 11:46:00,90.5,56.3,29.56,North,-999,-999.0,-999.0,5,0.00,,,-99.99,0.0,Linux-Irox,2013-07-23 18:46:00,
2013-07-23 11:56:00,90.9,56.7,29.56,North,-999,-999.0,-999.0,5,0.00,,,-99.99,0.0,Linux-Irox,2013-07-23 18:56:00,
2013-07-23 12:01:00,90.7,56.5,29.56,North,-999,-999.0,-999.0,5,0.00,,,-99.99,0.0,Linux-Irox,2013-07-23 19:01:00,
2013-07-23 12:06:00,91.8,57.6,29.56,North,-999,-999.0,-999.0,5,0.00,,,-99.99,0.0,Linux-Irox,2013-07-23 19:06:00,
2013-07-23 12:16:00,91.0,56.8,29.56,North,-999,-999.0,-999.0,5,0.00,,,-99.99,0.0,Linux-Irox,2013-07-23 19:16:00,
2013-07-23 12:26:00,91.4,57.2,29.56,North,-999,-999.0,-999.0,5,0.00,,,-99.99,0.0,Linux-Irox,2013-07-23 19:26:00,
2013-07-23 12:31:00,91.8,57.6,29.56,North,-999,-999.0,-999.0,5,0.00,,,-99.99,0.0,Linux-Irox,2013-07-23 19:31:00,
2013-07-23 12:36:00,92.7,58.5,29.56,North,-999,-999.0,-999.0,5,0.00,,,-99.99,0.0,Linux-Irox,2013-07-23 19:36:00,
2013-07-23 12:46:00,92.8,58.6,29.56,North,-999,-999.0,-999.0,5,0.00,,,-99.99,0.0,Linux-Irox,2013-07-23 19:46:00,
2013-07-23 12:56:00,92.1,57.9,29.56,North,-999,-999.0,-999.0,5,0.00,,,-99.99,0.0,Linux-Irox,2013-07-23 19:56:00,
2013-07-23 13:06:00,91.6,57.4,29.55,North,-999,-999.0,-999.0,5,0.00,,,-99.99,0.0,Linux-Irox,2013-07-23 20:06:00,
2013-07-23 13:16:00,92.8,58.6,29.55,North,-999,-999.0,-999.0,5,0.00,,,-99.99,0.0,Linux-Irox,2013-07-23 20:16:00,
2013-07-23 13:26:00,93.0,58.8,29.55,North,-999,-999.0,-999.0,5,0.00,,,-99.99,0.0,Linux-Irox,2013-07-23 20:26:00,
2013-07-23 13:31:00,92.8,58.6,29.55,North,-999,-999.0,-999.0,5,0.00,,,-99.99,0.0,Linux-Irox,2013-07-23 20:31:00,
2013-07-23 13:36:00,93.0,58.8,29.55,North,-999,-999.0,-999.0,5,0.00,,,-99.99,0.0,Linux-Irox,2013-07-23 20:36:00,
2013-07-23 13:46:00,93.4,59.2,29.55,North,-999,-999.0,-999.0,5,0.00,,,-99.99,0.0,Linux-Irox,2013-07-23 20:46:00,
2013-07-23 13:56:00,93.7,59.5,29.55,North,-999,-999.0,-999.0,5,0.00,,,-99.99,0.0,Linux-Irox,2013-07-23 20:56:00,
2013-07-23 14:01:00,92.8,58.6,29.55,North,-999,-999.0,-999.0,5,0.00,,,-99.99,0.0,Linux-Irox,2013-07-23 21:01:00,
2013-07-23 14:06:00,92.3,58.1,29.55,North,-999,-999.0,-999.0,5,0.00,,,-99.99,0.0,Linux-Irox,2013-07-23 21:06:00,
2013-07-23 14:16:00,92.3,58.1,29.55,North,-999,-999.0,-999.0,5,0.00,,,-99.99,0.0,Linux-Irox,2013-07-23 21:16:00,
2013-07-23 14:26:00,93.0,58.8,29.54,North,-999,-999.0,-999.0,5,0.00,,,-99.99,0.0,Linux-Irox,2013-07-23 21:26:00,
2013-07-23 14:31:00,92.8,58.6,29.54,North,-999,-999.0,-999.0,5,0.00,,,-99.99,0.0,Linux-Irox,2013-07-23 21:31:00,
2013-07-23 14:36:00,93.6,59.4,29.54,North,-999,-999.0,-999.0,5,0.00,,,-99.99,0.0,Linux-Irox,2013-07-23 21:36:00,
2013-07-23 14:46:00,92.3,58.1,29.53,North,-999,-999.0,-999.0,5,0.00,,,-99.99,0.0,Linux-Irox,2013-07-23 21:46:00,
2013-07-23 14:56:00,91.9,57.7,29.53,North,-999,-999.0,-999.0,5,0.00,,,-99.99,0.0,Linux-Irox,2013-07-23 21:56:00,
2013-07-23 15:01:00,91.9,57.7,29.53,North,-999,-999.0,-999.0,5,0.00,,,-99.99,0.0,Linux-Irox,2013-07-23 22:01:00,
2013-07-23 15:06:00,92.5,58.3,29.53,North,-999,-999.0,-999.0,5,0.00,,,-99.99,0.0,Linux-Irox,2013-07-23 22:06:00,
2013-07-23 15:16:00,93.4,59.2,29.53,North,-999,-999.0,-999.0,5,0.00,,,-99.99,0.0,Linux-Irox,2013-07-23 22:16:00,
2013-07-23 15:26:00,93.4,59.2,29.53,North,-999,-999.0,-999.0,5,0.00,,,-99.99,0.0,Linux-Irox,2013-07-23 22:26:00,
2013-07-23 15:31:00,94.3,60.1,29.53,North,-999,-999.0,-999.0,5,0.00,,,-99.99,0.0,Linux-Irox,2013-07-23 22:31:00,
2013-07-23 15:36:00,93.6,59.4,29.53,North,-999,-999.0,-999.0,5,0.00,,,-99.99,0.0,Linux-Irox,2013-07-23 22:36:00,
2013-07-23 15:46:00,93.0,58.8,29.52,North,-999,-999.0,-999.0,5,0.03,,,-99.99,0.0,Linux-Irox,2013-07-23 22:46:00,
2013-07-23 15:56:00,92.5,58.3,29.52,North,-999,-999.0,-999.0,5,0.03,,,-99.99,0.0,Linux-Irox,2013-07-23 22:56:00,
2013-07-23 16:01:00,92.3,58.1,29.49,North,-999,-999.0,-999.0,5,0.03,,,-99.99,0.0,Linux-Irox,2013-07-23 23:01:00,
2013-07-23 16:06:00,92.3,58.1,29.49,North,-999,-999.0,-999.0,5,0.03,,,-99.99,0.0,Linux-Irox,2013-07-23 23:06:00,
2013-07-23 16:16:00,91.8,57.6,29.49,North,-999,-999.0,-999.0,5,0.03,,,-99.99,0.0,Linux-Irox,2013-07-23 23:16:00,
2013-07-23 16:26:00,91.4,57.2,29.52,North,-999,-999.0,-999.0,5,0.03,,,-99.99,0.0,Linux-Irox,2013-07-23 23:26:00,
2013-07-23 16:31:00,90.7,56.5,29.52,North,-999,-999.0,-999.0,5,0.03,,,-99.99,0.0,Linux-Irox,2013-07-23 23:31:00,
2013-07-23 16:36:00,90.1,55.9,29.52,North,-999,-999.0,-999.0,5,0.03,,,-99.99,0.0,Linux-Irox,2013-07-23 23:36:00,
2013-07-23 16:46:00,90.7,56.5,29.52,North,-999,-999.0,-999.0,5,0.03,,,-99.99,0.0,Linux-Irox,2013-07-23 23:46:00,
2013-07-23 16:56:00,90.5,56.3,29.52,North,-999,-999.0,-999.0,5,0.00,,,-99.99,0.0,Linux-Irox,2013-07-23 23:56:00,
2013-07-23 17:01:00,90.7,56.5,29.52,North,-999,-999.0,-999.0,5,0.00,,,-99.99,0.0,Linux-Irox,2013-07-24 00:01:00,
2013-07-23 17:06:00,90.0,55.8,29.52,North,-999,-999.0,-999.0,5,0.00,,,-99.99,0.0,Linux-Irox,2013-07-24 00:06:00,
2013-07-23 17:16:00,89.6,55.4,29.52,North,-999,-999.0,-999.0,5,0.00,,,-99.99,0.0,Linux-Irox,2013-07-24 00:16:00,
2013-07-23 17:26:00,89.2,55.0,29.50,North,-999,-999.0,-999.0,5,0.00,,,-99.99,0.0,Linux-Irox,2013-07-24 00:26:00,
2013-07-23 17:31:00,88.7,54.5,29.50,North,-999,-999.0,-999.0,5,0.00,,,-99.99,0.0,Linux-Irox,2013-07-24 00:31:00,
2013-07-23 17:36:00,88.3,54.1,29.50,North,-999,-999.0,-999.0,5,0.00,,,-99.99,0.0,Linux-Irox,2013-07-24 00:36:00,
2013-07-23 17:46:00,88.0,53.8,29.52,North,-999,-999.0,-999.0,5,0.00,,,-99.99,0.0,Linux-Irox,2013-07-24 00:46:00,
2013-07-23 17:56:00,87.4,53.2,29.52,North,-999,-999.0,-999.0,5,0.00,,,-99.99,0.0,Linux-Irox,2013-07-24 00:56:00,
2013-07-23 18:06:00,86.9,52.7,29.51,North,-999,-999.0,-999.0,5,0.00,,,-99.99,0.0,Linux-Irox,2013-07-24 01:06:00,
2013-07-23 18:16:00,86.0,51.8,29.51,North,-999,-999.0,-999.0,5,0.00,,,-99.99,0.0,Linux-Irox,2013-07-24 01:16:00,
2013-07-23 18:26:00,85.3,51.1,29.51,North,-999,-999.0,-999.0,5,0.00,,,-99.99,0.0,Linux-Irox,2013-07-24 01:26:00,
2013-07-23 18:31:00,85.1,50.9,29.51,North,-999,-999.0,-999.0,5,0.00,,,-99.99,0.0,Linux-Irox,2013-07-24 01:31:00,
2013-07-23 18:36:00,84.9,50.7,29.51,North,-999,-999.0,-999.0,5,0.00,,,-99.99,0.0,Linux-Irox,2013-07-24 01:36:00,
2013-07-23 18:46:00,84.2,50.0,29.51,North,-999,-999.0,-999.0,5,0.00,,,-99.99,0.0,Linux-Irox,2013-07-24 01:46:00,
2013-07-23 18:56:00,83.1,48.9,29.51,North,-999,-999.0,-999.0,5,0.00,,,-99.99,0.0,Linux-Irox,2013-07-24 01:56:00,
2013-07-23 19:01:00,83.1,48.9,29.52,North,-999,-999.0,-999.0,5,0.00,,,-99.99,0.0,Linux-Irox,2013-07-24 02:01:00,
2013-07-23 19:06:00,82.8,48.6,29.52,North,-999,-999.0,-999.0,5,0.00,,,-99.99,0.0,Linux-Irox,2013-07-24 02:06:00,
2013-07-23 19:16:00,82.2,48.0,29.52,North,-999,-999.0,-999.0,5,0.00,,,-99.99,0.0,Linux-Irox,2013-07-24 02:16:00,
2013-07-23 19:26:00,81.3,47.1,29.52,North,-999,-999.0,-999.0,5,0.00,,,-99.99,0.0,Linux-Irox,2013-07-24 02:26:00,
2013-07-23 19:31:00,81.1,46.9,29.52,North,-999,-999.0,-999.0,5,0.00,,,-99.99,0.0,Linux-Irox,2013-07-24 02:31:00,
2013-07-23 19:36:00,80.6,46.4,29.52,North,-999,-999.0,-999.0,5,0.00,,,-99.99,0.0,Linux-Irox,2013-07-24 02:36:00,
2013-07-23 19:46:00,79.7,45.5,29.53,North,-999,-999.0,-999.0,5,0.00,,,-99.99,0.0,Linux-Irox,2013-07-24 02:46:00,
2013-07-23 19:56:00,79.2,45.0,29.53,North,-999,-999.0,-999.0,5,0.00,,,-99.99,0.0,Linux-Irox,2013-07-24 02:56:00,
2013-07-23 20:01:00,78.6,44.4,29.53,North,-999,-999.0,-999.0,5,0.00,,,-99.99,0.0,Linux-Irox,2013-07-24 03:01:00,
2013-07-23 20:06:00,78.1,43.9,29.53,North,-999,-999.0,-999.0,5,0.00,,,-99.99,0.0,Linux-Irox,2013-07-24 03:06:00,
2013-07-23 20:16:00,77.0,42.8,29.53,North,-999,-999.0,-999.0,5,0.00,,,-99.99,0.0,Linux-Irox,2013-07-24 03:16:00,
2013-07-23 20:26:00,76.5,42.3,29.53,North,-999,-999.0,-999.0,5,0.00,,,-99.99,0.0,Linux-Irox,2013-07-24 03:26:00,
2013-07-23 20:36:00,75.9,41.7,29.53,North,-999,-999.0,-999.0,5,0.00,,,-99.99,0.0,Linux-Irox,2013-07-24 03:36:00,
2013-07-23 20:46:00,75.2,41.0,29.53,North,-999,-999.0,-999.0,5,0.00,,,-99.99,0.0,Linux-Irox,2013-07-24 03:46:00,
2013-07-23 20:56:00,74.7,40.5,29.53,North,-999,-999.0,-999.0,5,0.00,,,-99.99,0.0,Linux-Irox,2013-07-24 03:56:00,
2013-07-23 21:06:00,74.3,40.1,29.54,North,-999,-999.0,-999.0,5,0.00,,,-99.99,0.0,Linux-Irox,2013-07-24 04:06:00,
2013-07-23 21:16:00,73.6,39.4,29.54,North,-999,-999.0,-999.0,5,0.00,,,-99.99,0.0,Linux-Irox,2013-07-24 04:16:00,
2013-07-23 21:26:00,73.2,39.0,29.54,North,-999,-999.0,-999.0,5,0.00,,,-99.99,0.0,Linux-Irox,2013-07-24 04:26:00,
2013-07-23 21:36:00,72.9,38.7,29.54,North,-999,-999.0,-999.0,5,0.00,,,-99.99,0.0,Linux-Irox,2013-07-24 04:36:00,
2013-07-23 21:46:00,72.5,38.3,29.55,North,-999,-999.0,-999.0,5,0.00,,,-99.99,0.0,Linux-Irox,2013-07-24 04:46:00,
2013-07-23 21:56:00,72.0,37.8,29.55,North,-999,-999.0,-999.0,5,0.00,,,-99.99,0.0,Linux-Irox,2013-07-24 04:56:00,
2013-07-23 22:06:00,71.4,37.2,29.55,North,-999,-999.0,-999.0,5,0.00,,,-99.99,0.0,Linux-Irox,2013-07-24 05:06:00,
2013-07-23 22:16:00,71.1,36.9,29.55,North,-999,-999.0,-999.0,5,0.00,,,-99.99,0.0,Linux-Irox,2013-07-24 05:16:00,
2013-07-23 22:26:00,71.1,36.9,29.55,North,-999,-999.0,-999.0,5,0.00,,,-99.99,0.0,Linux-Irox,2013-07-24 05:26:00,
2013-07-23 22:36:00,70.9,36.7,29.55,North,-999,-999.0,-999.0,5,0.00,,,-99.99,0.0,Linux-Irox,2013-07-24 05:36:00,
2013-07-23 22:46:00,70.5,36.3,29.55,North,-999,-999.0,-999.0,5,0.00,,,-99.99,0.0,Linux-Irox,2013-07-24 05:46:00,
2013-07-23 22:56:00,70.3,36.1,29.55,North,-999,-999.0,-999.0,5,0.00,,,-99.99,0.0,Linux-Irox,2013-07-24 05:56:00,
2013-07-23 23:06:00,70.3,36.1,29.55,North,-999,-999.0,-999.0,5,0.00,,,-99.99,0.0,Linux-Irox,2013-07-24 06:06:00,
2013-07-23 23:16:00,70.5,36.3,29.55,North,-999,-999.0,-999.0,5,0.00,,,-99.99,0.0,Linux-Irox,2013-07-24 06:16:00,
2013-07-23 23:26:00,70.5,36.3,29.56,North,-999,-999.0,-999.0,5,0.00,,,-99.99,0.0,Linux-Irox,2013-07-24 06:26:00,
2013-07-23 23:36:00,70.3,36.1,29.56,North,-999,-999.0,-999.0,5,0.00,,,-99.99,0.0,Linux-Irox,2013-07-24 06:36:00,
2013-07-23 23:46:00,70.5,36.3,29.56,North,-999,-999.0,-999.0,5,0.00,,,-99.99,0.0,Linux-Irox,2013-07-24 06:46:00,
2013-07-23 23:56:00,70.3,36.1,29.56,North,-999,-999.0,-999.0,5,0.00,,,-99.99,0.0,Linux-Irox,2013-07-24 06:56:00,